Time;durP1;ratioP1;P1;durP2;ratioP2;P2;SDS_P1;SDS_P2;PMS_P1;PMS_P2;Temp;Humidity;BMP_temperature;BMP_pressure;BME280_temperature;BME280_humidity;BME280_pressure;Samples;Min_cycle;Max_cycle;Signal;HPM_P1;HPM_P2
2022/11/07 05:55:38;;;;;;;;;1.00;1.00;;;;;14.31;72.30;101107.78;3032830;22;68626;-90
2022/11/07 05:56:49;;;;;;;;;2.00;2.00;;;;;14.33;72.15;101113.00;3043667;22;45171;-91
2022/11/07 05:57:59;;;;;;;;;1.75;1.50;;;;;14.36;72.32;101118.16;3056831;22;45738;-91
2022/11/07 05:59:11;;;;;;;;;1.50;1.50;;;;;14.35;72.04;101114.66;3054216;22;45391;-91
2022/11/07 06:00:22;;;;;;;;;3.00;1.00;;;;;14.38;71.96;101126.88;3042361;22;45242;-91
2022/11/07 06:01:32;;;;;;;;;3.50;2.00;;;;;14.38;72.05;101117.19;3043345;22;46232;-89
2022/11/07 06:02:44;;;;;;;;;3.00;1.50;;;;;14.40;71.94;101119.75;3043266;22;45116;-90
2022/11/07 06:03:54;;;;;;;;;2.00;1.00;;;;;14.40;71.71;101117.97;3047543;22;46287;-91
2022/11/07 06:05:05;;;;;;;;;3.00;2.00;;;;;14.42;72.20;101114.41;3043124;22;45344;-91
2022/11/07 06:06:15;;;;;;;;;2.00;2.00;;;;;14.42;71.96;101119.69;3043706;22;45285;-90
2022/11/07 06:07:26;;;;;;;;;2.75;1.50;;;;;14.45;71.97;101120.41;3042930;22;45186;-90
2022/11/07 06:08:36;;;;;;;;;3.75;1.50;;;;;14.43;71.92;101111.69;3043649;22;45551;-89
2022/11/07 06:09:46;;;;;;;;;3.00;2.00;;;;;14.43;71.74;101116.13;3042898;22;44670;-90
2022/11/07 06:10:57;;;;;;;;;2.00;1.00;;;;;14.44;71.75;101117.84;3057185;22;47137;-87
2022/11/07 06:12:07;;;;;;;;;3.50;1.50;;;;;14.39;72.25;101113.63;3054135;22;45364;-91
2022/11/07 06:13:17;;;;;;;;;1.75;0.75;;;;;14.41;71.77;101113.53;3042113;22;46975;-90
2022/11/07 06:14:28;;;;;;;;;2.00;2.00;;;;;14.41;71.50;101118.84;3046818;22;44692;-90
2022/11/07 06:15:39;;;;;;;;;3.75;1.25;;;;;14.40;71.99;101110.03;3053371;22;48086;-90
2022/11/07 06:16:50;;;;;;;;;5.25;1.75;;;;;14.42;72.02;101119.69;3057784;22;45275;-90
2022/11/07 06:18:06;;;;;;;;;4.75;2.00;;;;;14.40;71.94;101112.69;3053605;22;46344;-90
2022/11/07 06:19:16;;;;;;;;;3.50;2.50;;;;;14.42;71.85;101115.25;3057998;22;45162;-90
2022/11/07 06:20:28;;;;;;;;;1.75;1.75;;;;;14.45;72.25;101122.19;3053817;22;46578;-90
2022/11/07 06:21:38;;;;;;;;;3.00;2.00;;;;;14.45;71.98;101127.47;3043885;22;45151;-90
2022/11/07 06:22:49;;;;;;;;;2.00;0.75;;;;;14.43;72.10;101122.25;3042375;22;46911;-91
2022/11/07 06:23:59;;;;;;;;;5.50;2.00;;;;;14.45;72.08;101122.19;3031773;22;45244;-90
2022/11/07 06:25:09;;;;;;;;;1.25;1.25;;;;;14.46;71.98;101121.28;3031187;22;46982;-90
2022/11/07 06:26:20;;;;;;;;;2.00;2.00;;;;;14.47;71.77;101123.00;3046848;22;45222;-89
2022/11/07 06:27:30;;;;;;;;;2.25;1.00;;;;;14.49;71.83;101126.44;3053049;22;47949;-90
2022/11/07 06:28:40;;;;;;;;;3.50;2.25;;;;;14.50;71.59;101117.56;3042450;22;44609;-89
2022/11/07 06:29:51;;;;;;;;;3.75;2.00;;;;;14.50;71.96;101129.00;3042983;22;45247;-90
2022/11/07 06:31:03;;;;;;;;;4.50;2.50;;;;;14.54;71.87;101126.25;3042196;22;45291;-89
2022/11/07 06:32:13;;;;;;;;;3.50;1.50;;;;;14.54;72.00;101119.16;3031762;22;47109;-90
2022/11/07 06:33:24;;;;;;;;;4.00;1.00;;;;;14.54;72.23;101132.41;3031692;22;45306;-90
2022/11/07 06:34:34;;;;;;;;;5.00;1.50;;;;;14.56;71.79;101130.53;3042356;22;46977;-91
2022/11/07 06:35:45;;;;;;;;;3.50;1.75;;;;;14.56;71.92;101133.19;3043375;22;45187;-90
2022/11/07 06:36:55;;;;;;;;;4.25;2.00;;;;;14.57;71.84;101134.88;3043762;22;45337;-90
2022/11/07 06:38:11;;;;;;;;;1.75;1.00;;;;;14.58;71.80;101141.03;3043640;22;45336;-90
2022/11/07 06:39:22;;;;;;;;;5.25;4.00;;;;;14.60;71.97;101145.34;3057557;22;48105;-90
2022/11/07 06:40:32;;;;;;;;;2.00;2.00;;;;;14.59;71.90;101148.91;3054046;22;45249;-89
2022/11/07 06:41:43;;;;;;;;;4.25;1.25;;;;;14.61;71.80;101146.22;3042872;22;46698;-89
2022/11/07 06:42:53;;;;;;;;;2.00;1.25;;;;;14.63;71.46;101150.50;3042575;22;44596;-90
2022/11/07 06:44:03;;;;;;;;;2.75;2.75;;;;;14.62;71.47;101143.47;3043054;22;46325;-90
2022/11/07 06:45:14;;;;;;;;;2.00;2.00;;;;;14.60;71.68;101150.63;3043176;22;45139;-89
2022/11/07 06:46:24;;;;;;;;;2.75;2.00;;;;;14.60;71.59;101147.97;3042262;22;46977;-90
2022/11/07 06:47:35;;;;;;;;;2.50;2.00;;;;;14.60;71.74;101147.13;3031689;22;44696;-90
2022/11/07 06:48:45;;;;;;;;;4.00;3.00;;;;;14.59;71.65;101142.78;3043077;22;45369;-90
2022/11/07 06:49:55;;;;;;;;;4.75;3.00;;;;;14.59;71.62;101138.31;3042337;22;45208;-90
2022/11/07 06:51:08;;;;;;;;;4.00;1.50;;;;;14.59;71.76;101138.31;3043000;22;46209;-89
2022/11/07 06:52:18;;;;;;;;;2.00;2.00;;;;;14.58;71.54;101141.03;3057759;22;45245;-89
2022/11/07 06:53:29;;;;;;;;;3.75;1.00;;;;;14.59;71.73;101142.78;3053962;22;46114;-87
2022/11/07 06:54:39;;;;;;;;;6.75;3.00;;;;;14.61;71.93;101141.78;3043083;22;45246;-90
2022/11/07 06:55:49;;;;;;;;;4.00;2.50;;;;;14.61;71.58;101147.06;3041867;22;46755;-89
2022/11/07 06:57:00;;;;;;;;;1.50;1.00;;;;;14.61;71.67;101152.34;3043272;22;44604;-91
2022/11/07 06:58:10;;;;;;;;;4.50;2.00;;;;;14.62;71.50;101154.06;3042202;22;46884;-90
2022/11/07 06:59:20;;;;;;;;;4.00;2.00;;;;;14.60;71.72;101155.06;3031181;22;45316;-89
2022/11/07 07:00:33;;;;;;;;;2.00;1.00;;;;;14.62;71.61;101159.34;3045853;22;47989;-91
2022/11/07 07:01:43;;;;;;;;;2.00;2.00;;;;;14.62;71.79;101154.06;3053151;22;45211;-90
2022/11/07 07:02:54;;;;;;;;;3.50;2.00;;;;;14.60;71.53;101149.75;3056659;22;47789;-90
2022/11/07 07:04:04;;;;;;;;;3.50;2.00;;;;;14.61;71.76;101156.78;3041983;22;44743;-89
2022/11/07 07:05:14;;;;;;;;;3.50;2.50;;;;;14.61;71.52;101157.66;3046531;22;46983;-90
2022/11/07 07:06:25;;;;;;;;;2.50;2.00;;;;;14.61;71.95;101156.78;3053615;22;45286;-90
2022/11/07 07:07:35;;;;;;;;;1.00;1.00;;;;;14.61;72.17;101156.78;3043556;22;46510;-89
2022/11/07 07:08:47;;;;;;;;;3.50;2.50;;;;;14.62;71.54;101156.72;3043688;22;44635;-88
2022/11/07 07:09:57;;;;;;;;;3.00;1.50;;;;;14.63;71.69;101154.94;3043164;22;46658;-90
2022/11/07 07:11:10;;;;;;;;;2.00;2.00;;;;;14.64;71.73;101159.31;3042275;22;45421;-90
2022/11/07 07:12:20;;;;;;;;;3.00;1.75;;;;;14.64;71.36;101159.31;3042796;22;46392;-90
2022/11/07 07:13:31;;;;;;;;;1.75;1.75;;;;;14.68;71.76;101162.66;3042490;22;44589;-89
2022/11/07 07:14:42;;;;;;;;;4.50;2.00;;;;;14.67;71.89;101158.31;3042921;22;45730;-91
2022/11/07 07:15:53;;;;;;;;;2.00;2.00;;;;;14.70;71.55;101164.31;3042477;22;45184;-90
2022/11/07 07:17:04;;;;;;;;;4.75;1.00;;;;;14.69;71.58;101159.94;3042824;22;46417;-89
2022/11/07 07:18:14;;;;;;;;;1.00;1.00;;;;;14.72;71.57;101158.94;3044227;22;44667;-89
2022/11/07 07:19:24;;;;;;;;;2.00;2.00;;;;;14.74;71.58;101165.06;3042447;22;45900;-90
2022/11/07 07:20:35;;;;;;;;;7.25;3.00;;;;;14.76;71.42;101159.69;3043278;22;45121;-88
2022/11/07 07:21:45;;;;;;;;;2.25;1.00;;;;;14.76;71.67;101165.84;3042227;22;47006;-90
2022/11/07 07:22:55;;;;;;;;;2.00;2.00;;;;;14.77;71.49;101167.53;3043690;22;45162;-89
2022/11/07 07:24:06;;;;;;;;;5.00;1.00;;;;;14.80;71.55;101175.34;3042542;22;48276;-89
2022/11/07 07:25:16;;;;;;;;;2.25;2.25;;;;;14.79;71.95;101168.31;3042253;22;45149;-89
2022/11/07 07:26:27;;;;;;;;;3.50;2.00;;;;;14.81;71.41;101170.94;3046207;22;47099;-91
2022/11/07 07:27:37;;;;;;;;;3.00;1.00;;;;;14.82;71.51;101168.19;3054116;22;44609;-89
2022/11/07 07:28:48;;;;;;;;;3.50;2.00;;;;;14.83;71.59;101169.94;3057637;22;46839;-88
2022/11/07 07:29:58;;;;;;;;;5.50;1.75;;;;;14.83;71.37;101172.59;3042932;22;45290;-89
2022/11/07 07:31:14;;;;;;;;;4.25;1.75;;;;;14.85;71.52;101183.97;3046960;22;47018;-89
2022/11/07 07:32:25;;;;;;;;;2.25;2.25;;;;;14.87;71.49;101183.03;3052775;22;44705;-90
2022/11/07 07:33:36;;;;;;;;;2.00;2.00;;;;;14.87;71.34;101177.75;3031911;22;47473;-90
2022/11/07 07:34:46;;;;;;;;;1.00;1.00;;;;;14.90;71.46;101177.63;3042759;22;45190;-90
2022/11/07 07:35:57;;;;;;;;;4.75;2.00;;;;;14.89;71.63;101168.81;3031830;22;48349;-89
2022/11/07 07:37:08;;;;;;;;;5.00;2.75;;;;;14.92;71.47;101173.97;3043463;22;45361;-90
2022/11/07 07:38:18;;;;;;;;;4.00;2.25;;;;;14.91;71.68;101174.06;3042745;22;47914;-91
2022/11/07 07:39:29;;;;;;;;;1.50;1.50;;;;;14.93;71.43;101178.34;3045611;22;44620;-91
2022/11/07 07:40:40;;;;;;;;;3.75;2.00;;;;;14.94;71.29;101173.91;3053238;22;47829;-90
2022/11/07 07:41:50;;;;;;;;;3.00;3.00;;;;;14.94;71.21;101169.47;3043193;22;45270;-89
2022/11/07 07:43:00;;;;;;;;;2.25;2.25;;;;;14.97;71.45;101176.41;3043721;22;46239;-89
2022/11/07 07:44:10;;;;;;;;;4.00;3.00;;;;;14.97;71.43;101171.13;3043429;22;45100;-89
2022/11/07 07:45:21;;;;;;;;;1.50;1.50;;;;;14.98;71.41;101169.34;3043407;22;45180;-90
2022/11/07 07:46:31;;;;;;;;;3.75;2.00;;;;;15.00;71.08;101168.34;3042375;22;45226;-89
2022/11/07 07:47:42;;;;;;;;;4.50;2.00;;;;;15.03;70.93;101172.66;3031505;22;46935;-88
2022/11/07 07:48:52;;;;;;;;;6.00;3.00;;;;;15.02;71.31;101176.22;3031409;22;45207;-89
2022/11/07 07:50:04;;;;;;;;;5.25;2.00;;;;;15.02;71.46;101169.13;3031704;22;47097;-89
2022/11/07 07:51:14;;;;;;;;;1.50;1.25;;;;;15.03;71.37;101177.94;3032162;22;45094;-90
2022/11/07 07:52:24;;;;;;;;;2.00;2.00;;;;;15.05;71.34;101176.06;3031630;22;46733;-89
2022/11/07 07:53:35;;;;;;;;;6.25;4.00;;;;;15.05;71.26;101178.72;3046369;22;45380;-88
2022/11/07 07:54:45;;;;;;;;;3.00;2.00;;;;;15.04;71.20;101175.22;3053259;22;47882;-90
2022/11/07 07:55:57;;;;;;;;;4.75;2.50;;;;;15.05;71.14;101171.66;3057280;22;45281;-91
2022/11/07 07:57:07;;;;;;;;;3.50;2.25;;;;;15.06;71.09;101177.81;3053987;22;45325;-90
2022/11/07 07:58:17;;;;;;;;;2.50;2.00;;;;;15.05;71.02;101176.06;3044770;22;45301;-90
2022/11/07 07:59:28;;;;;;;;;9.25;2.00;;;;;15.05;71.00;101174.28;3043028;22;48824;-89
2022/11/07 08:00:39;;;;;;;;;3.50;3.50;;;;;15.08;71.30;101175.94;3043779;22;45448;-88
2022/11/07 08:01:49;;;;;;;;;5.50;2.00;;;;;15.10;71.23;101173.22;3044041;22;46808;-89
2022/11/07 08:03:07;;;;;;;;;1.00;1.00;;;;;15.10;71.22;101174.09;3043218;22;44613;-89
2022/11/07 08:04:17;;;;;;;;;4.50;1.75;;;;;15.13;71.29;101173.09;3048930;22;47217;-89
2022/11/07 08:05:28;;;;;;;;;2.00;2.00;;;;;15.13;71.15;101175.75;3054943;22;45198;-89
2022/11/07 08:06:38;;;;;;;;;5.75;1.50;;;;;15.12;71.13;101171.34;3042792;22;46702;-88
2022/11/07 08:07:49;;;;;;;;;4.00;2.00;;;;;15.14;71.05;101175.66;3045560;22;44708;-91
2022/11/07 08:09:00;;;;;;;;;4.50;2.00;;;;;15.15;71.33;101182.69;3042631;22;48056;-89
2022/11/07 08:10:10;;;;;;;;;0.75;0.00;;;;;15.13;71.17;101179.25;3047354;22;45088;-90
2022/11/07 08:11:21;;;;;;;;;3.00;1.75;;;;;15.13;71.10;101179.25;3054380;22;45518;-89
2022/11/07 08:12:31;;;;;;;;;2.25;1.25;;;;;15.14;71.09;101180.94;3044782;22;44557;-90
2022/11/07 08:13:41;;;;;;;;;2.50;2.50;;;;;15.14;71.17;101186.25;3043295;22;47052;-90
2022/11/07 08:14:52;;;;;;;;;2.75;2.50;;;;;15.16;70.91;101189.69;3044025;22;45230;-90
2022/11/07 08:16:04;;;;;;;;;4.25;2.00;;;;;15.19;71.38;101186.03;3057983;22;47985;-90
2022/11/07 08:17:14;;;;;;;;;2.75;2.00;;;;;15.19;71.25;101191.31;3053577;22;44683;-90
2022/11/07 08:18:24;;;;;;;;;3.50;3.00;;;;;15.19;71.46;101192.19;3043082;22;47291;-89
2022/11/07 08:19:35;;;;;;;;;3.00;2.00;;;;;15.22;71.06;101199.16;3043549;22;45290;-91
2022/11/07 08:20:45;;;;;;;;;1.00;1.00;;;;;15.25;71.14;101203.44;3042829;22;48055;-91
2022/11/07 08:21:55;;;;;;;;;4.00;2.00;;;;;15.25;71.15;101204.31;3043473;22;45274;-90
2022/11/07 08:23:08;;;;;;;;;5.25;2.00;;;;;15.24;71.25;101199.94;3058437;22;46855;-92
2022/11/07 08:24:18;;;;;;;;;5.75;2.00;;;;;15.27;71.09;101202.44;3058674;22;45341;-90
2022/11/07 08:25:29;;;;;;;;;2.25;1.00;;;;;15.29;71.09;101205.88;3054515;22;46275;-91
2022/11/07 08:26:39;;;;;;;;;1.50;1.50;;;;;15.33;71.04;101218.97;3044242;22;45154;-90
2022/11/07 08:27:52;;;;;;;;;13.75;8.25;;;;;15.34;71.17;101218.91;3044370;22;45532;-90
2022/11/07 08:29:02;;;;;;;;;8.25;6.00;;;;;15.37;71.36;101215.25;3058568;22;45206;-89
2022/11/07 08:30:13;;;;;;;;;7.25;4.00;;;;;15.40;70.97;101210.69;3053736;22;47951;-89
2022/11/07 08:31:23;;;;;;;;;3.75;3.00;;;;;15.42;71.13;101218.56;3032451;22;45263;-91
2022/11/07 08:32:33;;;;;;;;;3.50;1.25;;;;;15.44;71.06;101219.34;3043956;22;46229;-90
2022/11/07 08:33:44;;;;;;;;;4.00;2.50;;;;;15.46;70.83;101224.59;3044694;22;44699;-90
2022/11/07 08:34:54;;;;;;;;;2.00;1.25;;;;;15.48;70.47;101215.63;3044489;22;45301;-89
2022/11/07 08:36:06;;;;;;;;;4.00;2.00;;;;;15.48;70.69;101218.25;3044433;22;45338;-91
2022/11/07 08:37:16;;;;;;;;;4.25;2.75;;;;;15.49;70.68;101214.69;3043132;22;47170;-89
2022/11/07 08:38:28;;;;;;;;;2.50;1.75;;;;;15.50;70.55;101212.91;3044023;22;45334;-90
2022/11/07 08:39:38;;;;;;;;;3.00;1.25;;;;;15.54;70.63;101217.13;3043618;22;46264;-91
2022/11/07 08:40:49;;;;;;;;;4.00;1.25;;;;;15.55;70.63;101210.91;3044627;22;45190;-90
2022/11/07 08:42:00;;;;;;;;;2.50;2.25;;;;;15.57;70.45;101213.47;3043232;22;46916;-89
2022/11/07 08:43:10;;;;;;;;;2.00;2.00;;;;;15.59;70.56;101206.31;3044002;22;45152;-91
2022/11/07 08:44:20;;;;;;;;;8.75;3.25;;;;;15.61;70.30;101210.63;3042767;22;46888;-92
2022/11/07 08:45:30;;;;;;;;;5.25;2.00;;;;;15.63;70.42;101213.22;3032516;22;44502;-89
2022/11/07 08:46:41;;;;;;;;;3.00;2.00;;;;;15.61;70.26;101209.75;3043790;22;45126;-89
2022/11/07 08:47:58;;;;;;;;;2.75;1.50;;;;;15.62;70.15;101209.69;3058643;22;45186;-91
2022/11/07 08:49:08;;;;;;;;;4.00;1.75;;;;;15.61;70.47;101207.09;3053637;22;46102;-90
2022/11/07 08:50:18;;;;;;;;;2.00;2.00;;;;;15.63;69.99;101203.44;3044711;22;45254;-89
2022/11/07 08:51:28;;;;;;;;;6.00;2.50;;;;;15.69;70.57;101214.69;3043102;22;47293;-90
2022/11/07 08:52:39;;;;;;;;;4.25;2.25;;;;;15.69;70.43;101218.19;3044125;22;44591;-91
2022/11/07 08:53:49;;;;;;;;;2.00;1.25;;;;;15.73;70.13;101209.16;3042763;22;47116;-91
2022/11/07 08:54:59;;;;;;;;;2.00;2.00;;;;;15.75;70.07;101207.31;3046963;22;45164;-90
2022/11/07 08:56:10;;;;;;;;;1.75;1.75;;;;;15.79;69.98;101208.03;3054577;22;45233;-87
2022/11/07 08:57:20;;;;;;;;;2.00;1.00;;;;;15.83;69.64;101214.88;3043678;22;45254;-90
2022/11/07 08:58:31;;;;;;;;;2.75;1.25;;;;;15.85;69.47;101215.66;3042592;22;47799;-89
2022/11/07 08:59:41;;;;;;;;;6.00;2.50;;;;;15.89;69.53;101216.41;3032170;22;45281;-90
2022/11/07 09:00:52;;;;;;;;;3.00;2.00;;;;;15.91;69.84;101211.88;3046881;22;46617;-90
2022/11/07 09:02:02;;;;;;;;;3.25;1.00;;;;;15.93;69.26;101217.97;3043399;22;45152;-89
2022/11/07 09:03:13;;;;;;;;;2.25;1.00;;;;;15.94;69.67;101222.34;3046425;22;47804;-90
2022/11/07 09:04:23;;;;;;;;;1.75;1.00;;;;;15.98;69.55;101215.94;3054947;22;44533;-91
2022/11/07 09:05:34;;;;;;;;;3.50;1.25;;;;;16.01;69.72;101219.38;3043647;22;45574;-89
2022/11/07 09:06:44;;;;;;;;;1.75;1.00;;;;;16.02;69.33;101219.31;3058002;22;45490;-90
2022/11/07 09:07:54;;;;;;;;;1.50;0.25;;;;;16.03;69.15;101225.47;3052565;22;46658;-89
2022/11/07 09:09:05;;;;;;;;;2.00;1.00;;;;;16.03;69.24;101223.69;3031764;22;45345;-90
2022/11/07 09:10:15;;;;;;;;;2.25;2.00;;;;;16.04;69.66;101225.44;3031607;22;47879;-91
2022/11/07 09:11:26;;;;;;;;;2.00;1.00;;;;;16.03;69.61;101215.72;3043880;22;44652;-90
2022/11/07 09:12:44;;;;;;;;;2.00;1.00;;;;;16.05;69.52;101227.13;3044270;22;45709;-89
2022/11/07 09:13:56;;;;;;;;;1.00;1.00;;;;;16.04;69.27;101222.78;3044612;22;44719;-91
2022/11/07 09:15:07;;;;;;;;;2.75;1.00;;;;;16.06;69.05;101241.25;3043136;22;46239;-91
2022/11/07 09:16:18;;;;;;;;;1.50;1.50;;;;;16.03;69.34;101226.31;3032486;22;45287;-91
2022/11/07 09:17:28;;;;;;;;;3.50;1.00;;;;;16.07;69.07;101237.69;3043658;22;45621;-90
2022/11/07 09:18:38;;;;;;;;;1.25;1.00;;;;;16.07;69.40;101235.03;3043836;22;45341;-91
2022/11/07 09:19:48;;;;;;;;;3.00;2.00;;;;;16.06;69.36;101226.22;3043098;22;47221;-89
2022/11/07 09:20:59;;;;;;;;;0.00;0.00;;;;;16.08;69.04;101239.38;3043401;22;45239;-90
2022/11/07 09:22:09;;;;;;;;;1.00;0.75;;;;;16.06;68.94;101230.66;3043092;22;47953;-90
2022/11/07 09:23:20;;;;;;;;;0.75;0.75;;;;;16.07;69.15;101227.09;3043074;22;45251;-89
2022/11/07 09:24:30;;;;;;;;;2.00;2.00;;;;;16.05;69.10;101224.50;3043281;22;45180;-91
2022/11/07 09:25:40;;;;;;;;;3.25;1.00;;;;;16.08;69.43;101228.78;3057746;22;45206;-91
2022/11/07 09:26:51;;;;;;;;;1.50;1.50;;;;;16.07;69.16;101217.34;3054734;22;46461;-91
2022/11/07 09:28:02;;;;;;;;;2.00;2.00;;;;;16.09;69.21;101230.50;3044528;22;45064;-89
2022/11/07 09:29:12;;;;;;;;;1.75;0.50;;;;;16.11;69.28;101226.00;3043200;22;45728;-90
2022/11/07 09:30:23;;;;;;;;;2.00;2.00;;;;;16.13;69.13;101225.91;3046453;22;45105;-90
2022/11/07 09:31:33;;;;;;;;;2.50;1.75;;;;;16.15;69.14;101221.41;3051182;22;47952;-90
2022/11/07 09:32:43;;;;;;;;;5.00;3.00;;;;;16.18;69.06;101218.59;3050194;22;45713;-89
2022/11/07 09:33:54;;;;;;;;;4.25;1.75;;;;;16.20;68.89;101222.88;3040327;22;46403;-90
2022/11/07 09:35:05;;;;;;;;;0.00;0.00;;;;;16.22;69.22;101225.47;3043476;22;45477;-90
2022/11/07 09:36:15;;;;;;;;;1.00;1.00;;;;;16.27;69.35;101225.25;3042949;22;45519;-90
2022/11/07 09:37:27;;;;;;;;;4.00;3.25;;;;;16.29;69.05;101221.59;3042148;22;45360;-90
2022/11/07 09:38:37;;;;;;;;;2.75;1.00;;;;;16.30;68.76;101211.81;3046092;22;47130;-90
2022/11/07 09:39:48;;;;;;;;;3.50;2.00;;;;;16.32;68.83;101212.63;3057110;22;45266;-90
2022/11/07 09:41:16;;;;;;;;;1.75;1.75;;;;;16.34;68.70;101213.41;3056411;22;48277;-90
2022/11/07 09:42:44;;;;;;;;;3.00;1.00;;;;;16.34;68.32;101215.19;3057551;22;45420;-90
2022/11/07 09:44:13;;;;;;;;;3.75;2.00;;;;;16.35;68.74;101215.09;3050577;22;46309;-90
2022/11/07 09:45:24;;;;;;;;;1.50;1.00;;;;;16.37;68.48;101215.03;3043384;22;45374;-91
2022/11/07 09:46:56;;;;;;;;;1.00;1.00;;;;;16.37;68.07;101213.22;3041406;22;46889;-91
2022/11/07 09:48:17;;;;;;;;;2.25;1.00;;;;;16.35;68.27;101215.09;3041021;22;45760;-90
2022/11/07 09:49:37;;;;;;;;;3.50;1.00;;;;;16.34;68.36;101218.69;3043228;22;45604;-92
2022/11/07 09:50:50;;;;;;;;;2.75;1.50;;;;;16.36;68.82;101216.81;3042155;22;45238;-89
2022/11/07 09:52:12;;;;;;;;;1.00;1.00;;;;;16.40;68.53;101226.34;3042722;22;46655;-89
2022/11/07 09:53:41;;;;;;;;;2.75;2.50;;;;;16.42;68.74;101221.81;3043247;22;45430;-91
2022/11/07 09:55:08;;;;;;;;;2.75;2.25;;;;;16.45;68.18;101222.59;3042060;22;47951;-90
2022/11/07 09:56:18;;;;;;;;;1.75;1.25;;;;;16.47;68.19;101226.06;2959390;23;45249;-90
2022/11/07 09:57:32;;;;;;;;;3.00;1.00;;;;;16.47;67.74;101228.69;2970549;23;45409;-90
2022/11/07 09:58:50;;;;;;;;;3.00;1.75;;;;;16.48;68.20;101227.75;2981992;23;45324;-90
2022/11/07 10:00:10;;;;;;;;;2.00;1.00;;;;;16.50;67.95;101233.84;2965653;23;46255;-89
2022/11/07 10:01:21;;;;;;;;;2.75;2.00;;;;;16.51;67.83;101222.28;3034051;22;45280;-90
2022/11/07 10:02:39;;;;;;;;;1.75;1.25;;;;;16.53;68.02;101228.38;3006473;22;47546;-88
2022/11/07 10:03:50;;;;;;;;;2.00;2.00;;;;;16.53;67.73;101223.06;2972657;23;45200;-90
2022/11/07 10:05:03;;;;;;;;;3.75;1.25;;;;;16.56;67.90;101228.22;2981919;23;45265;-90
2022/11/07 10:06:13;;;;;;;;;3.50;2.25;;;;;16.59;67.79;101229.88;2980816;23;45362;-89
2022/11/07 10:07:37;;;;;;;;;3.00;3.00;;;;;16.59;67.79;101217.47;2980539;23;45436;-89
2022/11/07 10:09:06;;;;;;;;;2.00;1.00;;;;;16.60;67.76;101219.16;2981751;23;45263;-89
2022/11/07 10:10:35;;;;;;;;;6.75;3.00;;;;;16.60;67.74;101229.78;2981944;22;45265;-88
2022/11/07 10:12:04;;;;;;;;;3.25;3.25;;;;;16.62;67.39;101232.34;2966382;22;45360;-90
2022/11/07 10:13:20;;;;;;;;;4.00;1.25;;;;;16.61;67.41;101230.66;2973617;23;48178;-89
2022/11/07 10:14:49;;;;;;;;;2.00;1.50;;;;;16.62;67.84;101235.88;2981237;23;45442;-89
2022/11/07 10:16:15;;;;;;;;;1.00;1.00;;;;;16.67;68.15;101232.13;2981399;23;46269;-90
2022/11/07 10:17:48;;;;;;;;;3.75;2.00;;;;;16.72;67.63;101224.78;2982080;23;44624;-89
2022/11/07 10:19:08;;;;;;;;;1.00;1.00;;;;;16.75;67.85;101227.28;2965757;23;47212;-91
2022/11/07 10:20:39;;;;;;;;;1.25;1.00;;;;;16.81;67.29;101226.97;2957583;23;45293;-89
2022/11/07 10:22:05;;;;;;;;;1.25;1.25;;;;;16.87;67.55;101221.34;2974039;23;47275;-89
2022/11/07 10:23:36;;;;;;;;;2.00;1.50;;;;;16.96;67.35;101227.94;2965876;23;44703;-89
2022/11/07 10:25:05;;;;;;;;;3.00;1.25;;;;;17.05;66.89;101231.06;2975133;23;45314;-88
2022/11/07 10:26:21;;;;;;;;;2.00;2.00;;;;;17.09;67.03;101225.50;2966388;23;45254;-90
2022/11/07 10:27:32;;;;;;;;;3.75;2.00;;;;;17.11;66.98;101212.16;2971715;23;46440;-90
2022/11/07 10:28:52;;;;;;;;;4.25;2.75;;;;;17.16;66.67;101215.44;2981148;23;45248;-90
2022/11/07 10:30:14;;;;;;;;;1.50;1.00;;;;;17.21;67.15;101223.19;2976358;23;45404;-89
2022/11/07 10:31:41;;;;;;;;;4.00;2.75;;;;;17.27;66.08;101217.53;2981878;23;45236;-89
2022/11/07 10:33:16;;;;;;;;;1.25;1.25;;;;;17.30;66.24;101214.72;2981236;23;45227;-90
2022/11/07 10:34:33;;;;;;;;;1.00;1.00;;;;;17.32;65.93;101207.53;2980136;22;45260;-89
2022/11/07 10:36:01;;;;;;;;;3.00;1.00;;;;;17.32;65.82;101201.34;2974530;23;47601;-89
2022/11/07 10:37:11;;;;;;;;;1.75;1.00;;;;;17.34;66.01;101211.88;2965746;23;45262;-90
2022/11/07 10:38:27;;;;;;;;;2.00;1.75;;;;;17.30;66.31;101204.09;2966077;23;48042;-88
2022/11/07 10:39:37;;;;;;;;;3.75;2.00;;;;;17.35;66.15;101210.94;2965965;23;45676;-89
2022/11/07 10:40:50;;;;;;;;;5.25;2.00;;;;;17.35;66.56;101211.81;2969576;23;48223;-89
2022/11/07 10:42:12;;;;;;;;;1.00;1.00;;;;;17.39;66.31;101209.84;2979338;23;44631;-89
2022/11/07 10:43:36;;;;;;;;;2.50;1.00;;;;;17.41;66.07;101205.28;2965842;23;47045;-90
2022/11/07 10:44:48;;;;;;;;;2.50;2.00;;;;;17.43;65.46;101216.72;2958085;23;45320;-89
2022/11/07 10:46:01;;;;;;;;;3.75;2.25;;;;;17.43;66.04;101212.22;2970210;23;48299;-90
2022/11/07 10:47:22;;;;;;;;;1.75;1.75;;;;;17.48;65.91;101208.50;2980541;23;45260;-89
2022/11/07 10:48:33;;;;;;;;;3.00;3.00;;;;;17.49;66.13;101212.84;2980823;23;45297;-89
2022/11/07 10:50:02;;;;;;;;;1.75;1.75;;;;;17.50;65.52;101210.13;2981509;23;45222;-86
2022/11/07 10:51:12;;;;;;;;;3.00;1.00;;;;;17.51;65.48;101222.44;2981802;23;46371;-89
2022/11/07 10:52:23;;;;;;;;;2.50;1.00;;;;;17.51;65.39;101218.94;2981608;23;44574;-89
2022/11/07 10:53:42;;;;;;;;;1.00;1.00;;;;;17.48;65.07;101209.31;2965965;23;47902;-89
2022/11/07 10:55:15;;;;;;;;;1.00;1.00;;;;;17.47;65.36;101210.28;2972392;23;45177;-90
2022/11/07 10:56:25;;;;;;;;;1.75;1.75;;;;;17.47;64.86;101215.59;2980167;22;47265;-89
2022/11/07 10:57:36;;;;;;;;;1.00;1.00;;;;;17.44;65.34;101207.78;2966233;23;45369;-89
2022/11/07 10:58:46;;;;;;;;;2.00;2.00;;;;;17.46;65.38;101215.69;2970604;23;46295;-89
2022/11/07 10:59:58;;;;;;;;;4.75;1.00;;;;;17.45;65.82;101225.47;2980310;23;45345;-88
2022/11/07 11:01:09;;;;;;;;;4.00;1.50;;;;;17.44;65.29;101223.72;2980781;23;45298;-89
2022/11/07 11:02:23;;;;;;;;;2.50;1.00;;;;;17.42;65.47;101221.16;2981569;23;45127;-90
2022/11/07 11:03:46;;;;;;;;;3.50;1.25;;;;;17.43;65.22;101211.41;2979598;23;48409;-89
2022/11/07 11:04:59;;;;;;;;;6.25;2.25;;;;;17.46;65.59;101221.00;2981566;23;45235;-89
2022/11/07 11:06:17;;;;;;;;;3.25;3.00;;;;;17.44;65.54;101213.09;2981245;23;46080;-89
2022/11/07 11:07:38;;;;;;;;;1.00;1.00;;;;;17.46;64.92;101216.53;2981362;23;45372;-89
2022/11/07 11:08:51;;;;;;;;;6.50;1.25;;;;;17.48;65.40;101217.28;3042106;22;47900;-89
2022/11/07 11:10:03;;;;;;;;;2.00;0.25;;;;;17.49;65.32;101211.03;3023393;22;44596;-89
2022/11/07 11:11:24;;;;;;;;;2.00;2.00;;;;;17.51;65.03;101213.63;2965599;23;48068;-88
2022/11/07 11:12:35;;;;;;;;;1.25;1.25;;;;;17.53;65.48;101209.09;2972937;23;44728;-91
2022/11/07 11:13:47;;;;;;;;;1.75;1.75;;;;;17.52;65.32;101202.06;2980761;22;48055;-89
2022/11/07 11:15:13;;;;;;;;;1.25;1.00;;;;;17.54;65.00;101206.34;2974855;23;45289;-90
2022/11/07 11:16:27;;;;;;;;;3.50;2.00;;;;;17.59;65.22;101215.84;2973838;23;46357;-92
2022/11/07 11:17:38;;;;;;;;;1.50;1.25;;;;;17.60;65.24;101206.94;2981051;23;45318;-90
2022/11/07 11:18:51;;;;;;;;;2.50;2.00;;;;;17.62;65.22;101197.94;2980138;22;47693;-89
2022/11/07 11:20:03;;;;;;;;;4.75;1.00;;;;;17.62;64.62;101205.06;2981153;23;45432;-89
2022/11/07 11:21:13;;;;;;;;;1.25;1.25;;;;;17.61;64.79;101195.34;2965896;23;48202;-87
2022/11/07 11:22:25;;;;;;;;;1.50;0.50;;;;;17.60;64.54;101191.00;2969549;23;45216;-90
2022/11/07 11:23:40;;;;;;;;;1.25;1.25;;;;;17.59;64.75;101200.78;2965609;23;46946;-88
2022/11/07 11:25:18;;;;;;;;;1.75;1.00;;;;;17.59;64.74;101206.09;2971175;23;45273;-90
2022/11/07 11:26:32;;;;;;;;;4.00;2.25;;;;;17.59;64.63;101199.91;2981740;23;46410;-89
2022/11/07 11:27:46;;;;;;;;;4.00;1.00;;;;;17.60;64.49;101201.63;2965374;23;45267;-90
2022/11/07 11:29:02;;;;;;;;;1.25;0.75;;;;;17.62;64.93;101194.44;2955877;23;46977;-91
2022/11/07 11:30:18;;;;;;;;;1.25;1.25;;;;;17.64;64.82;101203.16;2971243;23;45227;-89
2022/11/07 11:31:47;;;;;;;;;2.25;1.50;;;;;17.64;64.40;101198.72;2979539;23;46336;-89
2022/11/07 11:33:06;;;;;;;;;5.00;2.00;;;;;17.65;64.43;101199.56;2981707;22;45219;-90
2022/11/07 11:34:45;;;;;;;;;4.00;3.50;;;;;17.63;64.03;101202.31;2965968;23;46872;-89
2022/11/07 11:36:07;;;;;;;;;3.75;1.00;;;;;17.61;64.28;101206.84;2959952;23;45311;-90